Time;durP1;ratioP1;P1;durP2;ratioP2;P2;SDS_P1;SDS_P2;PMS_P1;PMS_P2;Temp;Humidity;BMP_temperature;BMP_pressure;BME280_temperature;BME280_humidity;BME280_pressure;Samples;Min_cycle;Max_cycle;Signal;HPM_P1;HPM_P2
2023/10/03 00:00:34;;;;;;;7.20;2.03;;;11.20;99.90;;;;;;4968344;28;20034;-94
2023/10/03 00:03:01;;;;;;;6.38;2.05;;;11.20;99.90;;;;;;4967529;28;20026;-92
2023/10/03 00:05:28;;;;;;;4.50;2.25;;;11.20;99.90;;;;;;4965770;28;20030;-91
2023/10/03 00:07:59;;;;;;;5.10;2.50;;;11.20;99.90;;;;;;4968587;28;20058;-92
2023/10/03 00:10:25;;;;;;;;;;;11.20;99.90;;;;;;4965821;28;20034;-92
2023/10/03 00:12:51;;;;;;;6.03;2.50;;;11.20;99.90;;;;;;4969002;28;20359;-92
2023/10/03 00:15:24;;;;;;;4.80;2.28;;;11.20;99.90;;;;;;4983255;28;20050;-91
2023/10/03 00:17:50;;;;;;;4.65;2.22;;;11.20;99.90;;;;;;4963909;28;20031;-92
2023/10/03 00:20:18;;;;;;;4.45;2.20;;;11.20;99.90;;;;;;4968427;28;20022;-91
2023/10/03 00:22:44;;;;;;;4.85;2.03;;;11.20;99.90;;;;;;4968305;28;20019;-91
2023/10/03 00:25:23;;;;;;;8.30;2.50;;;11.20;99.90;;;;;;4966761;28;20022;-92
2023/10/03 00:27:51;;;;;;;5.30;2.45;;;11.20;99.90;;;;;;4968255;28;20031;-91
2023/10/03 00:30:21;;;;;;;4.90;1.92;;;11.20;99.90;;;;;;4969171;28;20030;-91
2023/10/03 00:32:49;;;;;;;4.20;2.10;;;11.20;99.90;;;;;;4965718;28;20033;-91
2023/10/03 00:35:16;;;;;;;5.70;2.40;;;11.20;99.90;;;;;;4966437;28;20492;-90
2023/10/03 00:37:46;;;;;;;9.23;2.60;;;11.20;99.90;;;;;;4967488;28;20038;-93
2023/10/03 00:42:49;;;;;;;5.20;2.47;;;11.20;99.90;;;;;;4981908;28;20104;-90
2023/10/03 00:45:22;;;;;;;4.45;2.10;;;11.20;99.90;;;;;;4984901;28;20157;-91
2023/10/03 00:47:48;;;;;;;3.92;2.10;;;11.10;99.90;;;;;;4982834;28;20015;-92
2023/10/03 00:50:16;;;;;;;5.47;1.75;;;11.10;99.90;;;;;;4967029;28;20027;-93
2023/10/03 00:52:45;;;;;;;3.45;1.98;;;11.10;99.90;;;;;;4970795;28;20073;-93
2023/10/03 00:55:12;;;;;;;7.45;2.65;;;11.00;99.90;;;;;;4979825;28;20037;-92
2023/10/03 00:57:38;;;;;;;4.35;2.35;;;11.00;99.90;;;;;;4980665;28;20022;-92
2023/10/03 01:00:15;;;;;;;7.65;2.92;;;11.00;99.90;;;;;;4980445;28;20033;-91
2023/10/03 01:02:50;;;;;;;5.63;2.15;;;11.00;99.90;;;;;;4982761;28;20026;-93
2023/10/03 01:05:16;;;;;;;5.32;1.92;;;11.00;99.90;;;;;;4983355;28;20023;-91
2023/10/03 01:07:46;;;;;;;5.97;2.20;;;11.00;99.90;;;;;;4973419;28;20491;-91
2023/10/03 01:10:18;;;;;;;5.55;1.90;;;11.00;99.90;;;;;;4970689;28;20098;-92
2023/10/03 01:12:47;;;;;;;5.72;2.20;;;11.00;99.90;;;;;;4968094;28;20031;-91
2023/10/03 01:15:21;;;;;;;3.65;1.77;;;11.00;99.90;;;;;;4988238;28;20030;-92
2023/10/03 01:17:53;;;;;;;5.30;2.00;;;11.00;99.90;;;;;;4969332;28;20050;-93
2023/10/03 01:20:34;;;;;;;5.43;2.00;;;11.00;99.90;;;;;;4969068;28;20061;-92
2023/10/03 01:23:06;;;;;;;4.30;2.00;;;11.00;99.90;;;;;;4987208;28;20019;-93
2023/10/03 01:25:34;;;;;;;5.75;2.53;;;11.00;99.90;;;;;;4986597;28;20026;-92
2023/10/03 01:27:59;;;;;;;4.65;2.17;;;11.00;99.90;;;;;;4969944;28;20041;-91
2023/10/03 01:30:26;;;;;;;4.32;1.90;;;11.00;99.90;;;;;;4970077;28;20050;-91
2023/10/03 01:32:56;;;;;;;6.90;2.13;;;11.00;99.90;;;;;;4971328;28;20047;-91
2023/10/03 01:35:22;;;;;;;3.97;1.85;;;11.00;99.90;;;;;;4968180;28;20408;-91
2023/10/03 01:37:50;;;;;;;7.38;2.05;;;11.00;99.90;;;;;;4969956;28;20023;-91
2023/10/03 01:40:17;;;;;;;4.82;2.10;;;10.90;99.90;;;;;;4970767;28;20528;-91
2023/10/03 01:42:46;;;;;;;4.40;2.20;;;10.90;99.90;;;;;;4967073;28;20481;-91
2023/10/03 01:45:26;;;;;;;4.10;2.30;;;10.90;99.90;;;;;;4966961;28;20034;-91
2023/10/03 01:47:51;;;;;;;7.22;1.80;;;10.90;99.90;;;;;;4969271;28;20030;-91
2023/10/03 01:50:19;;;;;;;4.75;2.00;;;10.90;99.90;;;;;;4966758;28;20018;-91
2023/10/03 01:52:48;;;;;;;4.00;1.77;;;10.90;99.90;;;;;;4968099;28;20030;-91
2023/10/03 01:55:17;;;;;;;7.22;2.67;;;10.90;99.90;;;;;;4967702;28;20110;-92
2023/10/03 01:57:44;;;;;;;4.85;2.20;;;10.90;99.90;;;;;;4967490;28;20034;-90
2023/10/03 02:00:24;;;;;;;5.82;2.30;;;10.80;99.90;;;;;;4965209;28;20035;-92
2023/10/03 02:02:51;;;;;;;7.63;2.15;;;10.90;99.90;;;;;;4968120;28;20026;-90
2023/10/03 02:05:24;;;;;;;3.92;1.98;;;10.90;99.90;;;;;;4965390;28;20035;-92
2023/10/03 02:07:52;;;;;;;4.45;2.17;;;10.80;99.90;;;;;;4968733;28;20074;-91
2023/10/03 02:10:18;;;;;;;5.75;2.35;;;10.90;99.90;;;;;;4967953;28;20024;-91
2023/10/03 02:12:56;;;;;;;4.70;2.15;;;10.80;99.90;;;;;;4965025;28;20543;-92
2023/10/03 02:15:24;;;;;;;5.13;2.17;;;10.80;99.90;;;;;;4968313;28;20031;-93
2023/10/03 02:17:55;;;;;;;4.55;2.20;;;10.80;99.90;;;;;;4965424;28;20015;-92
2023/10/03 02:20:25;;;;;;;7.53;2.03;;;10.80;99.90;;;;;;4965345;28;20030;-92
2023/10/03 02:22:57;;;;;;;5.15;2.60;;;10.80;99.90;;;;;;4963009;28;20031;-92
2023/10/03 02:25:30;;;;;;;6.45;2.70;;;10.90;99.90;;;;;;4966725;28;20031;-93
2023/10/03 02:27:56;;;;;;;7.03;2.95;;;10.90;99.90;;;;;;4964193;28;20023;-93
2023/10/03 02:30:26;;;;;;;5.22;2.45;;;10.90;99.90;;;;;;4966871;28;20125;-94
2023/10/03 02:32:57;;;;;;;5.75;2.72;;;10.90;99.90;;;;;;4967414;28;20026;-93
2023/10/03 02:35:25;;;;;;;5.07;2.33;;;10.90;99.90;;;;;;4967389;28;20042;-92
2023/10/03 02:37:52;;;;;;;9.43;3.85;;;10.90;99.90;;;;;;4967913;28;20097;-93
2023/10/03 02:40:22;;;;;;;4.78;2.70;;;10.90;99.90;;;;;;4964863;28;20019;-92
2023/10/03 02:42:54;;;;;;;8.48;3.40;;;10.90;99.90;;;;;;4963989;28;20370;-92
2023/10/03 02:45:25;;;;;;;10.40;3.63;;;10.90;99.90;;;;;;4969087;28;20031;-91
2023/10/03 02:47:55;;;;;;;6.95;2.88;;;10.90;99.90;;;;;;4967793;28;20038;-93
2023/10/03 02:50:23;;;;;;;8.10;3.20;;;10.90;99.90;;;;;;4972699;28;20031;-92
2023/10/03 02:52:49;;;;;;;10.43;3.80;;;10.90;99.90;;;;;;4985421;28;20027;-92
2023/10/03 02:55:17;;;;;;;11.07;4.15;;;10.90;99.90;;;;;;4986801;28;20038;-91
2023/10/03 02:57:43;;;;;;;7.95;3.67;;;10.90;99.90;;;;;;4985612;28;20019;-92
2023/10/03 03:00:12;;;;;;;7.20;3.72;;;10.90;99.90;;;;;;4972754;28;20066;-92
2023/10/03 03:02:47;;;;;;;8.30;3.80;;;10.90;99.90;;;;;;4965314;28;20028;-91
2023/10/03 03:05:17;;;;;;;6.20;3.50;;;10.90;99.90;;;;;;4969400;28;20031;-93
2023/10/03 03:07:48;;;;;;;5.67;3.67;;;10.90;99.90;;;;;;4983504;28;20025;-93
2023/10/03 03:10:16;;;;;;;14.95;5.63;;;10.90;99.90;;;;;;4986692;28;20022;-92
2023/10/03 03:12:44;;;;;;;14.75;4.10;;;10.90;99.90;;;;;;4976431;28;20125;-92
2023/10/03 03:15:21;;;;;;;7.20;3.53;;;10.80;99.90;;;;;;4975654;28;20030;-93
2023/10/03 03:17:48;;;;;;;7.95;3.28;;;10.70;99.90;;;;;;4975238;28;20035;-93
2023/10/03 03:20:25;;;;;;;15.60;4.05;;;10.70;99.90;;;;;;4975528;28;20500;-90
2023/10/03 03:22:51;;;;;;;7.15;3.80;;;10.70;99.90;;;;;;4974623;28;20037;-91
2023/10/03 03:25:37;;;;;;;10.48;3.42;;;10.70;99.90;;;;;;4974519;28;20038;-90
2023/10/03 03:28:12;;;;;;;7.90;4.20;;;10.60;99.90;;;;;;4974877;28;20041;-90
2023/10/03 03:30:55;;;;;;;9.25;4.00;;;10.60;99.90;;;;;;4975626;28;20023;-90
2023/10/03 03:33:21;;;;;;;9.32;4.50;;;10.60;99.90;;;;;;4975520;28;20045;-91
2023/10/03 03:35:50;;;;;;;9.55;3.97;;;10.60;99.90;;;;;;4973571;28;20043;-91
2023/10/03 03:38:17;;;;;;;11.52;5.85;;;10.60;99.90;;;;;;4975391;28;20042;-91
2023/10/03 03:40:46;;;;;;;19.50;6.35;;;10.60;99.90;;;;;;4974563;28;20022;-91
2023/10/03 03:43:13;;;;;;;11.88;5.88;;;10.60;99.90;;;;;;4974230;28;20034;-90
2023/10/03 03:45:39;;;;;;;13.30;7.18;;;10.60;99.90;;;;;;4974433;28;20120;-91
2023/10/03 03:48:09;;;;;;;15.05;8.13;;;10.70;99.90;;;;;;4974377;28;20030;-90
2023/10/03 03:50:35;;;;;;;18.45;7.82;;;10.60;99.90;;;;;;4977887;28;20030;-90
2023/10/03 03:53:02;;;;;;;20.00;7.93;;;10.60;99.90;;;;;;4981878;28;20023;-90
2023/10/03 03:55:29;;;;;;;18.30;9.15;;;10.70;99.90;;;;;;4975585;28;20027;-91
2023/10/03 03:58:14;;;;;;;15.50;8.80;;;10.70;99.90;;;;;;4981835;28;20042;-89
2023/10/03 04:00:47;;;;;;;18.45;8.65;;;10.70;99.90;;;;;;4983424;28;20038;-91
2023/10/03 04:03:13;;;;;;;18.33;8.75;;;10.70;99.90;;;;;;4981382;28;20370;-91
2023/10/03 04:05:40;;;;;;;21.92;8.70;;;10.70;99.90;;;;;;4978901;28;20030;-90
2023/10/03 04:08:06;;;;;;;18.23;7.28;;;10.80;99.90;;;;;;4978900;28;20031;-91
2023/10/03 04:10:37;;;;;;;19.90;8.77;;;10.80;99.90;;;;;;4979827;28;20019;-91
2023/10/03 04:13:10;;;;;;;27.00;10.63;;;10.80;99.90;;;;;;4977588;28;20023;-90
2023/10/03 04:15:39;;;;;;;18.42;7.53;;;10.90;99.90;;;;;;4976476;28;20027;-92
2023/10/03 04:18:09;;;;;;;17.50;9.05;;;10.90;99.90;;;;;;4974886;28;20022;-91
2023/10/03 04:20:38;;;;;;;21.00;6.75;;;10.90;99.90;;;;;;4973922;28;20042;-93
2023/10/03 04:23:05;;;;;;;20.00;9.18;;;10.90;99.90;;;;;;4973486;28;20074;-90
2023/10/03 04:25:32;;;;;;;20.23;8.40;;;10.90;99.90;;;;;;4962300;28;20046;-91
2023/10/03 04:27:58;;;;;;;18.58;8.10;;;11.00;99.90;;;;;;4964417;28;20024;-91
2023/10/03 04:30:25;;;;;;;20.58;7.35;;;10.90;99.90;;;;;;4965929;28;20073;-91
2023/10/03 04:32:52;;;;;;;21.08;6.68;;;10.90;99.90;;;;;;4963590;28;20027;-93
2023/10/03 04:35:19;;;;;;;16.77;6.28;;;10.90;99.90;;;;;;4965528;28;20093;-92
2023/10/03 04:37:51;;;;;;;15.23;6.13;;;11.00;99.90;;;;;;4964620;28;20515;-92
2023/10/03 04:40:22;;;;;;;14.55;5.43;;;11.00;99.90;;;;;;4964428;28;20031;-92
2023/10/03 04:42:55;;;;;;;13.73;4.65;;;11.00;99.90;;;;;;4963232;28;20047;-92
2023/10/03 04:45:22;;;;;;;14.07;5.20;;;11.00;99.90;;;;;;4959724;28;20027;-93
2023/10/03 04:47:48;;;;;;;11.65;4.55;;;11.00;99.90;;;;;;4961442;28;20470;-92
2023/10/03 04:50:18;;;;;;;10.45;4.22;;;11.00;99.90;;;;;;4968696;28;20472;-91
2023/10/03 04:52:48;;;;;;;10.27;4.63;;;11.00;99.90;;;;;;4960961;28;20117;-92
2023/10/03 04:55:18;;;;;;;11.27;4.20;;;11.00;99.90;;;;;;4966992;28;20535;-92
2023/10/03 04:57:49;;;;;;;9.77;4.05;;;11.00;99.90;;;;;;4969223;28;20019;-93
2023/10/03 05:00:16;;;;;;;13.20;3.90;;;11.00;99.90;;;;;;4972585;28;20030;-91
2023/10/03 05:02:49;;;;;;;12.40;4.35;;;11.00;99.90;;;;;;4976284;28;20046;-93
2023/10/03 05:05:15;;;;;;;15.95;4.03;;;11.00;99.90;;;;;;4968393;28;20054;-92
2023/10/03 05:07:40;;;;;;;12.48;3.58;;;11.00;99.90;;;;;;4978579;28;20023;-92
2023/10/03 05:10:07;;;;;;;12.05;3.53;;;11.00;99.90;;;;;;4970760;28;20038;-91
2023/10/03 05:12:33;;;;;;;19.95;4.10;;;11.00;99.90;;;;;;4971567;28;20110;-91
2023/10/03 05:14:58;;;;;;;12.45;3.60;;;11.00;99.90;;;;;;4964734;28;20063;-91
2023/10/03 05:17:26;;;;;;;11.70;3.58;;;11.00;99.90;;;;;;4972607;28;20019;-90
2023/10/03 05:19:53;;;;;;;13.05;3.50;;;11.00;99.90;;;;;;4976366;28;20081;-91
2023/10/03 05:22:20;;;;;;;17.73;3.53;;;11.00;99.90;;;;;;4977470;28;20023;-92
2023/10/03 05:24:49;;;;;;;6.30;2.75;;;11.00;99.90;;;;;;4973271;28;20026;-92
2023/10/03 05:27:15;;;;;;;11.35;3.28;;;11.00;99.90;;;;;;4977609;28;20030;-91
2023/10/03 05:29:41;;;;;;;14.02;3.50;;;11.00;99.90;;;;;;4979019;28;20042;-91
2023/10/03 05:32:10;;;;;;;10.98;3.15;;;11.00;99.90;;;;;;4979263;28;20022;-92
2023/10/03 05:34:35;;;;;;;9.60;3.60;;;11.00;99.90;;;;;;4990279;28;20082;-91
2023/10/03 05:37:02;;;;;;;8.98;3.67;;;11.00;99.90;;;;;;5000275;28;20015;-89
2023/10/03 05:39:27;;;;;;;8.82;3.53;;;10.90;99.90;;;;;;5000435;28;20046;-91
2023/10/03 05:41:56;;;;;;;8.10;2.90;;;11.00;99.90;;;;;;4989289;28;20031;-90
2023/10/03 05:44:23;;;;;;;16.33;3.70;;;11.00;99.90;;;;;;4988459;28;20387;-91
2023/10/03 05:46:55;;;;;;;10.40;3.95;;;10.90;99.90;;;;;;4976449;28;20431;-90
2023/10/03 05:49:22;;;;;;;14.88;3.55;;;10.90;99.90;;;;;;4976320;28;20062;-92
2023/10/03 05:51:49;;;;;;;15.13;3.95;;;10.90;99.90;;;;;;4976901;28;20038;-94
2023/10/03 05:54:15;;;;;;;12.45;4.20;;;10.80;99.90;;;;;;4966128;28;20026;-91
2023/10/03 05:56:41;;;;;;;11.40;4.78;;;10.80;99.90;;;;;;4968274;28;20496;-92
2023/10/03 05:59:07;;;;;;;13.88;4.07;;;10.70;99.90;;;;;;4972308;28;20045;-93
2023/10/03 06:01:32;;;;;;;6.50;3.50;;;10.70;99.90;;;;;;4970194;28;20023;-92
2023/10/03 06:03:58;;;;;;;10.70;3.53;;;10.70;99.90;;;;;;4967008;28;20113;-91
2023/10/03 06:06:24;;;;;;;13.68;3.70;;;10.60;99.90;;;;;;4965194;28;20038;-91
2023/10/03 06:08:49;;;;;;;13.65;3.00;;;10.60;99.90;;;;;;4967493;28;20071;-92
2023/10/03 06:11:16;;;;;;;9.18;2.90;;;10.60;99.90;;;;;;4965017;28;20026;-91
2023/10/03 06:13:44;;;;;;;12.52;3.13;;;10.60;99.90;;;;;;4968986;28;20033;-90
2023/10/03 06:16:12;;;;;;;10.77;3.53;;;10.60;99.90;;;;;;4958097;28;20031;-92
2023/10/03 06:18:40;;;;;;;12.25;4.07;;;10.50;99.90;;;;;;4958411;28;20031;-91
2023/10/03 06:21:10;;;;;;;13.88;4.57;;;10.50;99.90;;;;;;4978637;28;20042;-92
2023/10/03 06:23:39;;;;;;;12.98;4.38;;;10.50;99.90;;;;;;4975382;28;20023;-90
2023/10/03 06:26:07;;;;;;;14.63;3.78;;;10.50;99.90;;;;;;4974844;29;20060;-92
2023/10/03 06:28:33;;;;;;;7.28;3.08;;;10.50;99.90;;;;;;4982210;28;20495;-90
2023/10/03 06:30:58;;;;;;;12.90;3.55;;;10.50;99.90;;;;;;4961170;28;20035;-93
2023/10/03 06:33:24;;;;;;;14.48;4.07;;;10.50;99.90;;;;;;4969199;28;20087;-94
2023/10/03 06:35:51;;;;;;;11.32;2.67;;;10.50;99.90;;;;;;4966284;28;20139;-93
2023/10/03 06:38:19;;;;;;;15.60;3.03;;;10.50;99.90;;;;;;4967168;28;20034;-92
2023/10/03 06:40:46;;;;;;;10.23;3.25;;;10.50;99.90;;;;;;4964796;28;20027;-92
2023/10/03 06:43:11;;;;;;;8.35;2.38;;;10.40;99.90;;;;;;4957687;29;20042;-93
2023/10/03 06:45:37;;;;;;;8.27;2.58;;;10.40;99.90;;;;;;4956424;28;20023;-91
2023/10/03 06:48:03;;;;;;;12.40;2.15;;;10.40;99.90;;;;;;4956229;29;20031;-92
2023/10/03 06:50:32;;;;;;;7.65;2.15;;;10.50;99.90;;;;;;4956565;29;20050;-90
2023/10/03 06:52:59;;;;;;;6.38;2.22;;;10.40;99.90;;;;;;4975667;28;20023;-92
2023/10/03 06:55:24;;;;;;;9.02;2.33;;;10.40;99.90;;;;;;4976623;28;20137;-94
2023/10/03 06:57:50;;;;;;;10.68;2.33;;;10.40;99.90;;;;;;4968255;28;20488;-92
2023/10/03 07:00:17;;;;;;;7.07;2.60;;;10.50;99.90;;;;;;4967789;28;20099;-93
2023/10/03 07:02:44;;;;;;;6.10;2.13;;;10.50;99.90;;;;;;4973684;28;20248;-94
2023/10/03 07:05:11;;;;;;;7.45;2.50;;;10.50;99.90;;;;;;4967973;29;20027;-94
2023/10/03 07:07:37;;;;;;;6.68;2.35;;;10.50;99.90;;;;;;4963891;29;20070;-92
2023/10/03 07:10:04;;;;;;;5.70;2.10;;;10.50;99.90;;;;;;4963058;28;20055;-92
2023/10/03 07:12:30;;;;;;;6.30;2.10;;;10.50;99.90;;;;;;4962584;28;20064;-92
2023/10/03 07:14:55;;;;;;;5.65;1.90;;;10.50;99.90;;;;;;4961519;29;20532;-93
2023/10/03 07:17:22;;;;;;;9.80;2.15;;;10.50;99.90;;;;;;4969663;28;20051;-92
2023/10/03 07:19:48;;;;;;;8.60;1.88;;;10.50;99.90;;;;;;4977031;28;20054;-93
2023/10/03 07:22:15;;;;;;;9.55;2.30;;;10.60;99.90;;;;;;4975581;28;20029;-92
2023/10/03 07:24:40;;;;;;;8.38;2.05;;;10.70;99.90;;;;;;4975867;28;20027;-93
2023/10/03 07:27:11;;;;;;;10.05;2.17;;;10.70;99.90;;;;;;4975407;28;20038;-93
2023/10/03 07:29:42;;;;;;;8.15;2.08;;;10.70;99.90;;;;;;4976241;28;20511;-92
2023/10/03 07:32:12;;;;;;;7.95;2.38;;;10.80;99.90;;;;;;4974483;28;20023;-93
2023/10/03 07:34:42;;;;;;;9.95;2.03;;;10.80;99.90;;;;;;4974597;28;20153;-92
2023/10/03 07:37:08;;;;;;;9.70;2.47;;;10.90;99.90;;;;;;4974586;28;20037;-92
2023/10/03 07:39:34;;;;;;;15.18;2.35;;;11.00;99.90;;;;;;4974385;28;20447;-92
2023/10/03 07:42:01;;;;;;;6.95;1.80;;;11.00;99.90;;;;;;4975576;28;20086;-92
2023/10/03 07:44:27;;;;;;;8.40;1.92;;;11.10;99.90;;;;;;4975106;28;20567;-92
2023/10/03 07:46:53;;;;;;;8.50;2.65;;;11.10;99.90;;;;;;4976281;28;20019;-93
2023/10/03 07:49:19;;;;;;;8.25;1.85;;;11.20;99.90;;;;;;4976104;28;20054;-92
2023/10/03 07:51:45;;;;;;;6.60;1.92;;;11.20;99.90;;;;;;4974626;28;20035;-93
2023/10/03 07:54:11;;;;;;;8.95;2.15;;;11.30;99.90;;;;;;4974066;28;20030;-92
2023/10/03 07:56:41;;;;;;;7.82;3.38;;;11.30;99.90;;;;;;4974912;28;20038;-93
2023/10/03 07:59:07;;;;;;;8.77;1.83;;;11.40;99.90;;;;;;4974750;28;20042;-93
2023/10/03 08:01:38;;;;;;;5.38;1.58;;;11.40;99.90;;;;;;4970149;28;20023;-93
2023/10/03 08:04:08;;;;;;;;;;;11.50;99.90;;;;;;4969565;28;20052;-90
2023/10/03 08:06:34;;;;;;;7.47;2.15;;;11.50;99.90;;;;;;4963939;29;19911;-92
2023/10/03 08:09:00;;;;;;;8.05;2.10;;;11.50;99.90;;;;;;4959549;29;20023;-91
2023/10/03 08:11:29;;;;;;;8.57;2.38;;;11.50;99.90;;;;;;4954403;29;20031;-91
2023/10/03 08:14:00;;;;;;;7.30;1.95;;;11.50;99.90;;;;;;4954087;29;20405;-92
2023/10/03 08:16:34;;;;;;;6.53;1.80;;;11.50;99.90;;;;;;4954479;29;20465;-92
2023/10/03 08:19:01;;;;;;;8.50;1.70;;;11.50;99.90;;;;;;4955723;28;20047;-93
2023/10/03 08:21:28;;;;;;;6.50;2.10;;;11.40;99.90;;;;;;4966684;28;20039;-93
2023/10/03 08:23:55;;;;;;;10.30;1.70;;;11.40;99.90;;;;;;4977885;28;20030;-92
2023/10/03 08:26:21;;;;;;;6.95;1.75;;;11.40;99.90;;;;;;4977582;28;20030;-93
2023/10/03 08:28:59;;;;;;;5.63;1.52;;;11.40;99.90;;;;;;4976029;28;20043;-92
2023/10/03 08:31:27;;;;;;;7.00;1.60;;;11.30;99.90;;;;;;4977716;28;20032;-92
2023/10/03 08:33:55;;;;;;;5.63;1.60;;;11.30;99.90;;;;;;4983038;28;20027;-94
2023/10/03 08:36:22;;;;;;;6.43;1.55;;;11.30;99.90;;;;;;5007531;28;20041;-95
2023/10/03 08:38:49;;;;;;;4.88;1.17;;;11.30;99.90;;;;;;4995786;28;20037;-93
2023/10/03 08:41:34;;;;;;;6.13;2.13;;;11.30;99.90;;;;;;5012742;28;20117;-93
2023/10/03 08:44:05;;;;;;;10.77;1.73;;;11.30;99.90;;;;;;4983162;28;20054;-95
2023/10/03 08:46:36;;;;;;;6.80;1.58;;;11.40;99.90;;;;;;4982331;28;20031;-94
2023/10/03 08:49:10;;;;;;;9.98;1.75;;;11.40;99.90;;;;;;4982190;28;20030;-93
2023/10/03 08:51:47;;;;;;;7.05;1.70;;;11.40;99.90;;;;;;4981362;28;20085;-95
2023/10/03 08:54:20;;;;;;;7.50;1.70;;;11.50;99.90;;;;;;4998613;28;20025;-96
2023/10/03 08:56:46;;;;;;;7.05;1.77;;;11.50;99.90;;;;;;4981278;28;20033;-92
2023/10/03 08:59:15;;;;;;;10.77;1.75;;;11.50;99.90;;;;;;4980305;28;20042;-92
2023/10/03 09:01:46;;;;;;;3.50;1.63;;;11.60;99.90;;;;;;5005853;28;20101;-93
2023/10/03 09:04:25;;;;;;;11.82;2.35;;;11.60;99.90;;;;;;4999723;28;20155;-94
2023/10/03 09:07:00;;;;;;;8.40;1.92;;;11.60;99.90;;;;;;4984795;28;20027;-93
2023/10/03 09:09:31;;;;;;;6.90;2.00;;;11.70;99.90;;;;;;4981931;28;20085;-95
2023/10/03 09:12:00;;;;;;;;;;;11.80;99.90;;;;;;4983008;28;20027;-95
2023/10/03 09:14:36;;;;;;;6.95;2.28;;;11.90;99.90;;;;;;4965648;28;19926;-94
2023/10/03 09:17:06;;;;;;;12.73;2.70;;;12.00;99.90;;;;;;4997483;28;20077;-93
2023/10/03 09:19:46;;;;;;;6.40;1.88;;;12.20;99.90;;;;;;4980359;28;20133;-95
2023/10/03 09:22:30;;;;;;;10.05;1.85;;;12.30;99.90;;;;;;4996751;28;20026;-95
2023/10/03 09:24:59;;;;;;;11.38;2.95;;;12.30;99.90;;;;;;4980102;28;20097;-94
2023/10/03 09:27:31;;;;;;;10.07;2.45;;;12.40;99.90;;;;;;4980850;28;20068;-95
2023/10/03 09:29:58;;;;;;;9.27;2.47;;;12.60;99.90;;;;;;4998265;28;20026;-95
2023/10/03 09:32:24;;;;;;;13.32;2.50;;;12.70;99.90;;;;;;4980672;28;20456;-93
2023/10/03 09:34:58;;;;;;;9.10;1.98;;;12.80;99.90;;;;;;4986571;28;20466;-93
2023/10/03 09:37:29;;;;;;;7.72;1.90;;;12.80;99.90;;;;;;4989128;28;20509;-93
2023/10/03 09:39:59;;;;;;;6.80;2.10;;;12.90;99.90;;;;;;4985575;28;20569;-96
2023/10/03 09:42:30;;;;;;;8.40;2.47;;;12.90;99.90;;;;;;4987833;28;20595;-93
2023/10/03 09:44:59;;;;;;;13.48;2.40;;;13.00;99.90;;;;;;4980458;28;20097;-94
2023/10/03 09:47:30;;;;;;;12.82;2.08;;;13.00;99.90;;;;;;4980054;28;20054;-91
2023/10/03 09:50:09;;;;;;;12.48;2.25;;;13.00;99.90;;;;;;4993190;28;20156;-91
2023/10/03 09:52:50;;;;;;;6.15;2.22;;;13.10;99.90;;;;;;4974792;28;20035;-91
2023/10/03 09:55:27;;;;;;;11.07;2.05;;;13.20;99.90;;;;;;4962167;28;20034;-92
2023/10/03 09:57:59;;;;;;;8.57;2.13;;;13.40;99.90;;;;;;4967563;28;20036;-94
2023/10/03 10:00:40;;;;;;;9.18;2.20;;;13.40;99.90;;;;;;4972875;28;20042;-94
2023/10/03 10:03:29;;;;;;;4.22;1.60;;;13.50;99.90;;;;;;4977719;28;20030;-91
2023/10/03 10:06:22;;;;;;;12.00;2.05;;;13.60;99.90;;;;;;4986050;28;20038;-92
2023/10/03 10:09:48;;;;;;;10.90;2.00;;;13.80;99.90;;;;;;4977014;28;20025;-92
2023/10/03 10:12:19;;;;;;;10.15;2.47;;;14.20;99.90;;;;;;4884458;29;20080;-91
2023/10/03 10:15:26;;;;;;;7.72;1.60;;;14.50;99.90;;;;;;4881536;29;20596;-90
2023/10/03 10:17:55;;;;;;;8.65;1.75;;;14.60;99.90;;;;;;4833483;29;20074;-92
2023/10/03 10:20:37;;;;;;;5.70;1.20;;;14.60;99.90;;;;;;4849609;29;20046;-94
2023/10/03 10:23:22;;;;;;;6.13;1.33;;;14.70;99.90;;;;;;4835455;29;20101;-92
2023/10/03 10:25:52;;;;;;;7.82;1.40;;;14.90;99.90;;;;;;4845391;29;20118;-93
2023/10/03 10:28:26;;;;;;;7.15;1.38;;;15.00;99.90;;;;;;4829235;29;20030;-93
2023/10/03 10:31:11;;;;;;;13.65;1.83;;;15.00;99.90;;;;;;4828271;29;20101;-93
2023/10/03 10:33:38;;;;;;;8.43;1.55;;;15.10;99.90;;;;;;4847619;29;20033;-92
2023/10/03 10:36:07;;;;;;;8.60;1.50;;;15.20;99.90;;;;;;4854713;29;20155;-92
2023/10/03 10:38:33;;;;;;;9.23;1.80;;;15.30;99.90;;;;;;4839115;29;20045;-94
2023/10/03 10:44:13;;;;;;;9.40;1.83;;;15.30;99.90;;;;;;4936048;29;20028;-93
2023/10/03 10:46:46;;;;;;;6.07;1.33;;;15.50;99.90;;;;;;4941884;29;20133;-92
2023/10/03 10:49:37;;;;;;;8.55;1.40;;;15.80;99.90;;;;;;4919784;29;20588;-94
2023/10/03 10:52:10;;;;;;;8.57;1.77;;;16.20;99.90;;;;;;4984992;28;20038;-94
2023/10/03 10:54:42;;;;;;;9.55;1.50;;;16.50;99.90;;;;;;4988036;28;20480;-94
2023/10/03 10:57:14;;;;;;;11.07;1.70;;;16.70;99.90;;;;;;4974915;28;20026;-93
2023/10/03 10:59:43;;;;;;;9.63;1.30;;;16.90;99.90;;;;;;4979966;28;20495;-94
2023/10/03 11:02:26;;;;;;;7.43;1.50;;;17.10;99.90;;;;;;4980826;28;20034;-92
2023/10/03 11:04:58;;;;;;;7.05;1.45;;;17.20;99.90;;;;;;4976620;28;20030;-92
2023/10/03 11:07:29;;;;;;;9.35;1.50;;;17.10;99.90;;;;;;4979163;28;20018;-92
2023/10/03 11:10:02;;;;;;;10.38;1.73;;;17.10;99.90;;;;;;4980219;28;20030;-94
2023/10/03 11:12:29;;;;;;;6.53;1.40;;;17.10;99.90;;;;;;4974709;28;20039;-94
2023/10/03 11:14:56;;;;;;;7.63;1.42;;;17.10;99.90;;;;;;4967217;28;20067;-94
2023/10/03 11:17:23;;;;;;;9.27;1.55;;;17.10;99.90;;;;;;4966878;28;20033;-93
2023/10/03 11:19:50;;;;;;;9.93;1.63;;;16.90;99.90;;;;;;4978367;28;20038;-93
2023/10/03 11:22:17;;;;;;;8.32;2.47;;;17.00;99.90;;;;;;4978176;28;20019;-94
2023/10/03 11:24:44;;;;;;;11.45;1.42;;;17.00;99.90;;;;;;4978049;28;20522;-94
2023/10/03 11:27:24;;;;;;;10.77;1.83;;;17.00;99.90;;;;;;4978089;28;20038;-92
2023/10/03 11:29:50;;;;;;;5.43;1.25;;;16.80;99.90;;;;;;4977758;28;20072;-92
2023/10/03 11:32:25;;;;;;;6.43;2.00;;;16.80;99.90;;;;;;4978264;28;20058;-93
2023/10/03 11:34:56;;;;;;;9.30;1.75;;;16.90;99.90;;;;;;4994334;28;20049;-95
2023/10/03 11:37:45;;;;;;;5.38;1.25;;;16.90;99.90;;;;;;4977359;28;20033;-95
2023/10/03 11:40:16;;;;;;;8.20;2.30;;;16.70;99.70;;;;;;4977682;28;20065;-93
2023/10/03 11:42:55;;;;;;;12.23;1.70;;;16.40;98.80;;;;;;4977595;28;20041;-92
2023/10/03 11:45:24;;;;;;;6.47;1.70;;;16.10;98.40;;;;;;4990686;28;20030;-92
2023/10/03 11:48:02;;;;;;;6.97;1.83;;;15.90;99.10;;;;;;4987099;28;20060;-93
2023/10/03 11:50:28;;;;;;;8.38;1.73;;;15.60;99.80;;;;;;4977037;28;20039;-94
2023/10/03 11:52:58;;;;;;;4.25;1.33;;;15.50;99.90;;;;;;4995816;28;20098;-91
2023/10/03 11:55:25;;;;;;;7.15;1.60;;;15.40;99.90;;;;;;4993095;28;20486;-92
2023/10/03 11:57:51;;;;;;;4.00;1.60;;;15.20;99.90;;;;;;4957600;28;20038;-94
2023/10/03 12:00:16;;;;;;;9.18;1.70;;;15.20;99.90;;;;;;4965619;28;20061;-93
2023/10/03 12:02:46;;;;;;;8.95;1.35;;;15.10;99.90;;;;;;4984359;28;20041;-93
2023/10/03 12:05:16;;;;;;;7.80;2.92;;;15.30;99.90;;;;;;4974987;28;20181;-93
2023/10/03 12:07:45;;;;;;;7.25;1.55;;;15.70;99.90;;;;;;4972959;28;20102;-93
2023/10/03 12:10:12;;;;;;;9.20;1.23;;;15.90;99.90;;;;;;4973115;28;20034;-93
2023/10/03 12:12:39;;;;;;;7.28;1.85;;;16.10;99.90;;;;;;4990321;28;20055;-92
2023/10/03 12:15:12;;;;;;;10.00;1.40;;;16.10;99.90;;;;;;4990325;28;20053;-92
2023/10/03 12:17:42;;;;;;;9.35;1.83;;;16.10;99.90;;;;;;4980766;28;20031;-92
2023/10/03 12:20:11;;;;;;;8.47;1.63;;;16.00;99.90;;;;;;4977001;28;20041;-93
2023/10/03 12:22:41;;;;;;;11.57;1.97;;;15.90;99.90;;;;;;4976950;28;20100;-92
2023/10/03 12:25:09;;;;;;;7.30;1.37;;;15.80;99.90;;;;;;4977101;28;20339;-93
2023/10/03 12:27:35;;;;;;;5.18;1.17;;;15.80;99.90;;;;;;4976791;28;20045;-93
2023/10/03 12:30:04;;;;;;;9.15;1.95;;;15.70;99.90;;;;;;4977000;28;20109;-92
2023/10/03 12:32:34;;;;;;;12.40;2.05;;;15.70;99.90;;;;;;4976264;28;20037;-93
2023/10/03 12:35:00;;;;;;;6.32;1.10;;;15.60;99.90;;;;;;4977308;28;20050;-93
2023/10/03 12:37:26;;;;;;;7.75;1.13;;;15.50;99.90;;;;;;4976781;28;20030;-92
2023/10/03 12:39:52;;;;;;;7.10;1.83;;;15.50;99.90;;;;;;4969727;28;20042;-93
2023/10/03 12:42:18;;;;;;;6.15;1.17;;;15.50;99.90;;;;;;4957534;28;20046;-92
2023/10/03 12:44:44;;;;;;;8.63;1.15;;;15.50;99.90;;;;;;4965549;28;20031;-91
2023/10/03 12:47:10;;;;;;;7.75;1.42;;;15.50;99.90;;;;;;4976148;28;20030;-91
2023/10/03 12:49:36;;;;;;;8.00;1.20;;;15.40;99.90;;;;;;4971351;28;20019;-91
2023/10/03 12:52:02;;;;;;;4.07;1.63;;;15.40;99.90;;;;;;4960020;28;20038;-91
2023/10/03 12:54:27;;;;;;;6.20;1.42;;;15.40;99.90;;;;;;4959405;28;20031;-91
2023/10/03 12:56:53;;;;;;;7.20;1.42;;;15.40;99.90;;;;;;4957318;28;20019;-91
2023/10/03 12:59:19;;;;;;;7.25;1.40;;;15.40;99.90;;;;;;4974048;28;20034;-92
2023/10/03 13:01:47;;;;;;;8.25;1.30;;;15.50;99.90;;;;;;4956649;28;20051;-91